PWSweather.com
Personal Weather Stations
Station Observations
SBERGENWX
Wood Ridge, NJ 07075

Wood Ridge, NJ 07075

Lat: 40.851667, Lon: -74.088131

Elevation: 177

Station Type: Davis Vantage Vue

http://201weather.com/

High Low Average
Temperature 47.5°F8.6°C 29.2°F-1.6°C 39.6°F4.2°C
Dew Point 37.8°F3.2°C 14.6°F-9.7°C 28.5°F-1.9°C
Winds 5.8 mph 9.3 kmh Calm Calm 2.0 mph W3.2 kmh W
Wind Gusts 16.1 mph25.9 kmh -- 6.0 mph9.7 kmh
Humidity 84% 44% 66%
Pressure 30.29 in1025.7 mb 29.71 in1006.1 mb -
Precipitation 0.01 in0.3 mm - -
Hour Temp Dew Point Humidity Winds Wind Gusts Pressure Precip Precip Rate Daily Precip Total
12:00 AM 39.4°F4.1°C 35.0°F1.7°C 84% Calm Calm -- 29.69 in1005.4 mb - 0.00 in0.0 mm 0.42 in10.7 mm
12:15 AM 38.9°F3.8°C 34.5°F1.4°C 84% Calm Calm 1.2 mph1.9 kmh 29.70 in1005.8 mb - 0.00 in0.0 mm 0.42 in10.7 mm
12:30 AM 38.5°F3.6°C 34.1°F1.2°C 84% Calm Calm -- 29.71 in1006.1 mb - 0.00 in0.0 mm 0.42 in10.7 mm
12:45 AM 38.1°F3.4°C 34.0°F1.1°C 85% Calm Calm 1.2 mph1.9 kmh 29.71 in1006.1 mb - 0.00 in0.0 mm 0.42 in10.7 mm
01:00 AM 38.2°F3.4°C 33.5°F0.8°C 83% 1.2 mph NW1.9 kmh NW 3.5 mph5.6 kmh 29.71 in1006.1 mb - 0.00 in0.0 mm 0.00 in0.0 mm
01:15 AM 38.0°F3.3°C 33.0°F0.6°C 82% Calm Calm 2.3 mph3.7 kmh 29.71 in1006.1 mb - 0.00 in0.0 mm 0.00 in0.0 mm
01:30 AM 37.9°F3.3°C 32.9°F0.5°C 82% Calm Calm 1.2 mph1.9 kmh 29.72 in1006.4 mb - 0.00 in0.0 mm 0.00 in0.0 mm
01:45 AM 37.6°F3.1°C 32.6°F0.3°C 82% Calm Calm 2.3 mph3.7 kmh 29.73 in1006.8 mb - 0.00 in0.0 mm 0.00 in0.0 mm
02:00 AM 37.5°F3.1°C 32.5°F0.3°C 82% 1.2 mph NW1.9 kmh NW 1.2 mph1.9 kmh 29.73 in1006.8 mb - 0.00 in0.0 mm 0.00 in0.0 mm
02:15 AM 37.5°F3.1°C 32.2°F0.1°C 81% 1.2 mph NW1.9 kmh NW 4.6 mph7.4 kmh 29.74 in1007.1 mb - 0.00 in0.0 mm 0.00 in0.0 mm
02:30 AM 37.5°F3.1°C 32.2°F0.1°C 81% 1.2 mph WNW1.9 kmh WNW 2.3 mph3.7 kmh 29.75 in1007.5 mb - 0.00 in0.0 mm 0.00 in0.0 mm
02:45 AM 37.6°F3.1°C 32.3°F0.2°C 81% 1.2 mph NW1.9 kmh NW 6.9 mph11.1 kmh 29.76 in1007.8 mb - 0.00 in0.0 mm 0.00 in0.0 mm
03:00 AM 37.5°F3.1°C 32.2°F0.1°C 81% Calm Calm 1.2 mph1.9 kmh 29.77 in1008.1 mb - 0.00 in0.0 mm 0.00 in0.0 mm
03:15 AM 37.7°F3.2°C 32.4°F0.2°C 81% 1.2 mph NW1.9 kmh NW 1.2 mph1.9 kmh 29.78 in1008.5 mb - 0.00 in0.0 mm 0.00 in0.0 mm
03:30 AM 38.1°F3.4°C 32.5°F0.3°C 80% 1.2 mph NW1.9 kmh NW 3.5 mph5.6 kmh 29.78 in1008.5 mb - 0.00 in0.0 mm 0.00 in0.0 mm
03:45 AM 38.1°F3.4°C 32.5°F0.3°C 80% 2.3 mph WNW3.7 kmh WNW 5.8 mph9.3 kmh 29.78 in1008.5 mb - 0.00 in0.0 mm 0.00 in0.0 mm
04:00 AM 38.0°F3.3°C 32.4°F0.2°C 80% 1.2 mph NW1.9 kmh NW 3.5 mph5.6 kmh 29.78 in1008.5 mb - 0.00 in0.0 mm 0.00 in0.0 mm
04:15 AM 38.0°F3.3°C 32.7°F0.4°C 81% 1.2 mph WNW1.9 kmh WNW 4.6 mph7.4 kmh 29.78 in1008.5 mb - 0.00 in0.0 mm 0.00 in0.0 mm
04:30 AM 38.3°F3.5°C 32.7°F0.4°C 80% 3.5 mph WNW5.6 kmh WNW 4.6 mph7.4 kmh 29.78 in1008.5 mb - 0.00 in0.0 mm 0.00 in0.0 mm
04:45 AM 38.3°F3.5°C 32.7°F0.4°C 80% 3.5 mph WNW5.6 kmh WNW 6.9 mph11.1 kmh 29.78 in1008.5 mb - 0.00 in0.0 mm 0.00 in0.0 mm
05:00 AM 38.1°F3.4°C 32.8°F0.4°C 81% 1.2 mph WNW1.9 kmh WNW 3.5 mph5.6 kmh 29.79 in1008.8 mb - 0.00 in0.0 mm 0.00 in0.0 mm
05:15 AM 38.4°F3.6°C 33.0°F0.6°C 81% Calm Calm 1.2 mph1.9 kmh 29.80 in1009.1 mb - 0.00 in0.0 mm 0.00 in0.0 mm
05:30 AM 38.8°F3.8°C 33.2°F0.7°C 80% Calm Calm -- 29.79 in1008.8 mb - 0.00 in0.0 mm 0.00 in0.0 mm
05:45 AM 38.8°F3.8°C 33.5°F0.8°C 81% Calm Calm -- 29.79 in1008.8 mb - 0.00 in0.0 mm 0.00 in0.0 mm
06:00 AM 38.8°F3.8°C 33.7°F0.9°C 82% Calm Calm 2.3 mph3.7 kmh 29.79 in1008.8 mb - 0.00 in0.0 mm 0.00 in0.0 mm
06:15 AM 39.0°F3.9°C 34.0°F1.1°C 82% Calm Calm 1.2 mph1.9 kmh 29.78 in1008.5 mb - 0.00 in0.0 mm 0.00 in0.0 mm
06:30 AM 39.3°F4.1°C 34.3°F1.3°C 82% Calm Calm 1.2 mph1.9 kmh 29.78 in1008.5 mb - 0.00 in0.0 mm 0.00 in0.0 mm
06:45 AM 39.5°F4.2°C 34.5°F1.4°C 82% Calm Calm 1.2 mph1.9 kmh 29.79 in1008.8 mb - 0.00 in0.0 mm 0.00 in0.0 mm
07:00 AM 39.7°F4.3°C 34.9°F1.6°C 83% 1.2 mph SSW1.9 kmh SSW 2.3 mph3.7 kmh 29.79 in1008.8 mb - 0.00 in0.0 mm 0.00 in0.0 mm
07:15 AM 40.4°F4.7°C 35.3°F1.8°C 82% 1.2 mph SSW1.9 kmh SSW 2.3 mph3.7 kmh 29.80 in1009.1 mb - 0.00 in0.0 mm 0.00 in0.0 mm
07:30 AM 40.9°F4.9°C 35.5°F1.9°C 81% Calm Calm 1.2 mph1.9 kmh 29.80 in1009.1 mb - 0.00 in0.0 mm 0.00 in0.0 mm
07:45 AM 41.2°F5.1°C 35.8°F2.1°C 81% 1.2 mph SSW1.9 kmh SSW 3.5 mph5.6 kmh 29.80 in1009.1 mb - 0.00 in0.0 mm 0.00 in0.0 mm
08:00 AM 41.4°F5.2°C 36.0°F2.2°C 81% Calm Calm 2.3 mph3.7 kmh 29.81 in1009.5 mb - 0.00 in0.0 mm 0.00 in0.0 mm
08:15 AM 41.1°F5.1°C 36.0°F2.2°C 82% Calm Calm 1.2 mph1.9 kmh 29.82 in1009.8 mb - 0.00 in0.0 mm 0.00 in0.0 mm
08:30 AM 40.8°F4.9°C 36.3°F2.4°C 84% Calm Calm -- 29.82 in1009.8 mb - 0.00 in0.0 mm 0.00 in0.0 mm
08:45 AM 40.8°F4.9°C 36.3°F2.4°C 84% 1.2 mph S1.9 kmh S 3.5 mph5.6 kmh 29.83 in1010.2 mb - 0.00 in0.0 mm 0.00 in0.0 mm
09:00 AM 40.9°F4.9°C 36.4°F2.4°C 84% 1.2 mph S1.9 kmh S 2.3 mph3.7 kmh 29.84 in1010.5 mb - 0.00 in0.0 mm 0.00 in0.0 mm
09:15 AM 41.2°F5.1°C 36.7°F2.6°C 84% 1.2 mph SW1.9 kmh SW 3.5 mph5.6 kmh 29.85 in1010.8 mb - 0.00 in0.0 mm 0.00 in0.0 mm
09:30 AM 41.7°F5.4°C 36.9°F2.7°C 83% 1.2 mph SSW1.9 kmh SSW 1.2 mph1.9 kmh 29.85 in1010.8 mb - 0.00 in0.0 mm 0.00 in0.0 mm
09:45 AM 42.0°F5.6°C 37.2°F2.9°C 83% 1.2 mph SSW1.9 kmh SSW 3.5 mph5.6 kmh 29.86 in1011.2 mb - 0.00 in0.0 mm 0.00 in0.0 mm
10:00 AM 42.2°F5.7°C 37.4°F3.0°C 83% Calm Calm 1.2 mph1.9 kmh 29.87 in1011.5 mb - 0.00 in0.0 mm 0.00 in0.0 mm
10:15 AM 42.4°F5.8°C 37.6°F3.1°C 83% Calm Calm -- 29.88 in1011.9 mb - 0.00 in0.0 mm 0.00 in0.0 mm
10:30 AM 42.6°F5.9°C 37.8°F3.2°C 83% Calm Calm 1.2 mph1.9 kmh 29.88 in1011.9 mb - 0.00 in0.0 mm 0.00 in0.0 mm
10:45 AM 43.6°F6.4°C 37.5°F3.1°C 79% 1.2 mph W1.9 kmh W 4.6 mph7.4 kmh 29.89 in1012.2 mb - 0.00 in0.0 mm 0.00 in0.0 mm
11:00 AM 44.8°F7.1°C 36.7°F2.6°C 73% 2.3 mph W3.7 kmh W 5.8 mph9.3 kmh 29.89 in1012.2 mb - 0.00 in0.0 mm 0.00 in0.0 mm
11:15 AM 45.6°F7.6°C 35.6°F2.0°C 68% 3.5 mph W5.6 kmh W 9.2 mph14.8 kmh 29.89 in1012.2 mb - 0.00 in0.0 mm 0.00 in0.0 mm
11:30 AM 46.2°F7.9°C 34.7°F1.5°C 64% 2.3 mph WNW3.7 kmh WNW 9.2 mph14.8 kmh 29.89 in1012.2 mb - 0.00 in0.0 mm 0.00 in0.0 mm
11:45 AM 46.9°F8.3°C 34.1°F1.2°C 61% 2.3 mph WNW3.7 kmh WNW 5.8 mph9.3 kmh 29.89 in1012.2 mb - 0.00 in0.0 mm 0.00 in0.0 mm
12:00 PM 46.1°F7.8°C 33.8°F1.0°C 62% 4.6 mph NW7.4 kmh NW 8.1 mph13.0 kmh 29.89 in1012.2 mb - 0.00 in0.0 mm 0.00 in0.0 mm
12:15 PM 45.6°F7.6°C 36.0°F2.2°C 69% 2.3 mph NW3.7 kmh NW 3.5 mph5.6 kmh 29.89 in1012.2 mb - 0.00 in0.0 mm 0.00 in0.0 mm
12:30 PM 46.4°F8.0°C 36.4°F2.4°C 68% 2.3 mph NW3.7 kmh NW 3.5 mph5.6 kmh 29.89 in1012.2 mb - 0.00 in0.0 mm 0.00 in0.0 mm
12:45 PM 45.8°F7.7°C 35.1°F1.7°C 66% 1.2 mph NW1.9 kmh NW 4.6 mph7.4 kmh 29.89 in1012.2 mb - 0.00 in0.0 mm 0.00 in0.0 mm
01:00 PM 45.7°F7.6°C 33.8°F1.0°C 63% 2.3 mph NW3.7 kmh NW 5.8 mph9.3 kmh 29.89 in1012.2 mb - 0.00 in0.0 mm 0.00 in0.0 mm
01:15 PM 46.0°F7.8°C 32.9°F0.5°C 60% 3.5 mph NW5.6 kmh NW 8.1 mph13.0 kmh 29.89 in1012.2 mb - 0.00 in0.0 mm 0.00 in0.0 mm
01:30 PM 46.7°F8.2°C 30.4°F-0.9°C 53% 4.6 mph WNW7.4 kmh WNW 10.4 mph16.7 kmh 29.89 in1012.2 mb - 0.00 in0.0 mm 0.00 in0.0 mm
01:45 PM 47.0°F8.3°C 26.7°F-2.9°C 45% 4.6 mph NW7.4 kmh NW 10.4 mph16.7 kmh 29.89 in1012.2 mb - 0.00 in0.0 mm 0.00 in0.0 mm
02:00 PM 47.5°F8.6°C 26.6°F-3.0°C 44% 4.6 mph NW7.4 kmh NW 12.7 mph20.4 kmh 29.90 in1012.5 mb - 0.00 in0.0 mm 0.00 in0.0 mm
02:15 PM 46.7°F8.2°C 25.9°F-3.4°C 44% 4.6 mph WNW7.4 kmh WNW 9.2 mph14.8 kmh 29.91 in1012.9 mb - 0.00 in0.0 mm 0.00 in0.0 mm
02:30 PM 47.5°F8.6°C 27.2°F-2.7°C 45% 3.5 mph NW5.6 kmh NW 6.9 mph11.1 kmh 29.91 in1012.9 mb - 0.00 in0.0 mm 0.00 in0.0 mm
02:45 PM 46.6°F8.1°C 26.4°F-3.1°C 45% 3.5 mph NW5.6 kmh NW 8.1 mph13.0 kmh 29.92 in1013.2 mb - 0.00 in0.0 mm 0.00 in0.0 mm
03:00 PM 46.4°F8.0°C 27.2°F-2.7°C 47% 2.3 mph NW3.7 kmh NW 6.9 mph11.1 kmh 29.93 in1013.5 mb - 0.00 in0.0 mm 0.00 in0.0 mm
03:15 PM 45.5°F7.5°C 26.5°F-3.1°C 47% 3.5 mph NW5.6 kmh NW 5.8 mph9.3 kmh 29.95 in1014.2 mb - 0.00 in0.0 mm 0.00 in0.0 mm
03:30 PM 44.8°F7.1°C 25.3°F-3.7°C 46% 3.5 mph NNW5.6 kmh NNW 6.9 mph11.1 kmh 29.95 in1014.2 mb - 0.00 in0.0 mm 0.00 in0.0 mm
03:45 PM 44.7°F7.1°C 25.2°F-3.8°C 46% 3.5 mph NW5.6 kmh NW 16.1 mph25.9 kmh 29.97 in1014.9 mb - 0.00 in0.0 mm 0.00 in0.0 mm
04:00 PM 43.8°F6.6°C 25.4°F-3.7°C 48% 3.5 mph NW5.6 kmh NW 6.9 mph11.1 kmh 29.98 in1015.2 mb - 0.00 in0.0 mm 0.00 in0.0 mm
04:15 PM 43.4°F6.3°C 25.0°F-3.9°C 48% 2.3 mph NW3.7 kmh NW 4.6 mph7.4 kmh 29.98 in1015.2 mb - 0.00 in0.0 mm 0.00 in0.0 mm
04:30 PM 43.1°F6.2°C 26.7°F-2.9°C 52% 2.3 mph NW3.7 kmh NW 4.6 mph7.4 kmh 30.00 in1015.9 mb - 0.00 in0.0 mm 0.00 in0.0 mm
04:45 PM 43.2°F6.2°C 26.3°F-3.2°C 51% 3.5 mph WNW5.6 kmh WNW 8.1 mph13.0 kmh 30.01 in1016.3 mb - 0.00 in0.0 mm 0.00 in0.0 mm
05:00 PM 42.6°F5.9°C 25.7°F-3.5°C 51% 4.6 mph NW7.4 kmh NW 11.5 mph18.5 kmh 30.02 in1016.6 mb - 0.00 in0.0 mm 0.00 in0.0 mm
05:15 PM 42.4°F5.8°C 26.0°F-3.3°C 52% 3.5 mph WNW5.6 kmh WNW 8.1 mph13.0 kmh 30.03 in1016.9 mb - 0.00 in0.0 mm 0.00 in0.0 mm
05:30 PM 42.4°F5.8°C 25.0°F-3.9°C 50% 1.2 mph NW1.9 kmh NW 10.4 mph16.7 kmh 30.04 in1017.3 mb - 0.00 in0.0 mm 0.00 in0.0 mm
05:45 PM 42.1°F5.6°C 25.7°F-3.5°C 52% 3.5 mph NNW5.6 kmh NNW 9.2 mph14.8 kmh 30.05 in1017.6 mb - 0.00 in0.0 mm 0.00 in0.0 mm
06:00 PM 40.5°F4.7°C 25.5°F-3.6°C 55% 4.6 mph NNW7.4 kmh NNW 4.6 mph7.4 kmh 30.08 in1018.6 mb - 0.00 in0.0 mm 0.00 in0.0 mm
06:15 PM 39.4°F4.1°C 24.6°F-4.1°C 55% 1.2 mph WNW1.9 kmh WNW 2.3 mph3.7 kmh 30.09 in1019.0 mb - 0.00 in0.0 mm 0.00 in0.0 mm
06:30 PM 38.6°F3.7°C 23.8°F-4.6°C 55% 3.5 mph NNW5.6 kmh NNW 6.9 mph11.1 kmh 30.10 in1019.3 mb - 0.00 in0.0 mm 0.00 in0.0 mm
06:45 PM 38.2°F3.4°C 23.0°F-5.0°C 54% 3.5 mph NW5.6 kmh NW 6.9 mph11.1 kmh 30.11 in1019.6 mb - 0.00 in0.0 mm 0.00 in0.0 mm
07:00 PM 37.9°F3.3°C 21.8°F-5.7°C 52% 2.3 mph NW3.7 kmh NW 10.4 mph16.7 kmh 30.12 in1020.0 mb - 0.00 in0.0 mm 0.00 in0.0 mm
07:15 PM 37.5°F3.1°C 21.0°F-6.1°C 51% Calm Calm 3.5 mph5.6 kmh 30.13 in1020.3 mb - 0.00 in0.0 mm 0.00 in0.0 mm
07:30 PM 37.1°F2.8°C 21.5°F-5.8°C 53% 2.3 mph NW3.7 kmh NW 6.9 mph11.1 kmh 30.14 in1020.7 mb - 0.00 in0.0 mm 0.00 in0.0 mm
07:45 PM 36.6°F2.6°C 21.1°F-6.1°C 53% 4.6 mph NW7.4 kmh NW 10.4 mph16.7 kmh 30.14 in1020.7 mb - 0.00 in0.0 mm 0.00 in0.0 mm
08:00 PM 36.3°F2.4°C 21.7°F-5.7°C 55% 4.6 mph N7.4 kmh N 10.4 mph16.7 kmh 30.15 in1021.0 mb - 0.00 in0.0 mm 0.00 in0.0 mm
08:15 PM 36.0°F2.2°C 21.4°F-5.9°C 55% 4.6 mph NW7.4 kmh NW 9.2 mph14.8 kmh 30.15 in1021.0 mb - 0.00 in0.0 mm 0.00 in0.0 mm
08:30 PM 35.7°F2.1°C 21.1°F-6.1°C 55% 5.8 mph NW9.3 kmh NW 16.1 mph25.9 kmh 30.16 in1021.3 mb - 0.00 in0.0 mm 0.00 in0.0 mm
08:45 PM 35.5°F1.9°C 20.9°F-6.2°C 55% 4.6 mph NW7.4 kmh NW 13.8 mph22.2 kmh 30.17 in1021.7 mb - 0.00 in0.0 mm 0.00 in0.0 mm
09:00 PM 35.1°F1.7°C 20.1°F-6.6°C 54% 2.3 mph N3.7 kmh N 3.5 mph5.6 kmh 30.18 in1022.0 mb - 0.00 in0.0 mm 0.00 in0.0 mm
09:15 PM 34.7°F1.5°C 18.8°F-7.3°C 52% 4.6 mph NW7.4 kmh NW 11.5 mph18.5 kmh 30.19 in1022.4 mb - 0.00 in0.0 mm 0.00 in0.0 mm
09:30 PM 34.2°F1.2°C 17.9°F-7.8°C 51% 5.8 mph NW9.3 kmh NW 12.7 mph20.4 kmh 30.20 in1022.7 mb - 0.00 in0.0 mm 0.00 in0.0 mm
09:45 PM 33.5°F0.8°C 17.7°F-7.9°C 52% 3.5 mph NW5.6 kmh NW 6.9 mph11.1 kmh 30.20 in1022.7 mb - 0.00 in0.0 mm 0.00 in0.0 mm
10:00 PM 33.0°F0.6°C 17.3°F-8.2°C 52% 2.3 mph NNW3.7 kmh NNW 5.8 mph9.3 kmh 30.21 in1023.0 mb - 0.00 in0.0 mm 0.00 in0.0 mm
10:15 PM 32.7°F0.4°C 17.0°F-8.3°C 52% 2.3 mph WNW3.7 kmh WNW 3.5 mph5.6 kmh 30.23 in1023.7 mb - 0.00 in0.0 mm 0.00 in0.0 mm
10:30 PM 32.4°F0.2°C 17.2°F-8.2°C 53% 2.3 mph NW3.7 kmh NW 4.6 mph7.4 kmh 30.24 in1024.0 mb - 0.00 in0.0 mm 0.00 in0.0 mm
10:45 PM 32.2°F0.1°C 17.4°F-8.1°C 54% Calm Calm 2.3 mph3.7 kmh 30.24 in1024.0 mb - 0.00 in0.0 mm 0.00 in0.0 mm
11:00 PM 31.8°F-0.1°C 17.1°F-8.3°C 54% 2.3 mph NNW3.7 kmh NNW 3.5 mph5.6 kmh 30.24 in1024.0 mb - 0.00 in0.0 mm 0.00 in0.0 mm
11:15 PM 31.4°F-0.3°C 15.8°F-9.0°C 52% 4.6 mph NNW7.4 kmh NNW 10.4 mph16.7 kmh 30.25 in1024.4 mb - 0.00 in0.0 mm 0.00 in0.0 mm
11:30 PM 31.0°F-0.6°C 15.8°F-9.0°C 53% 3.5 mph NNW5.6 kmh NNW 11.5 mph18.5 kmh 30.26 in1024.7 mb - 0.00 in0.0 mm 0.00 in0.0 mm
11:45 PM 30.6°F-0.8°C 15.9°F-8.9°C 54% 1.2 mph NW1.9 kmh NW 5.8 mph9.3 kmh 30.26 in1024.7 mb - 0.00 in0.0 mm 0.00 in0.0 mm